Hub


Voltar

 INFORMAÇÕES METEOROLÓGICAS

METAR FOR GCGM


ADDS - METARS form results

(1652 UTC 24 June 2019)
Data provider http://aviationweather.gov/metar/data/
 
METAR text: GCGM 241630Z 23016KT 9999 FEW012 24/19 Q1017 RMK R09/24012KT 190V290 ARP/24013KT 200V280
Conditions at: GCGM (LA GOMERA ARPT , ES) observed 1630 UTC 24 June 2019
Temperature: 24.0°C (75°F)
Dewpoint: 19.0°C (66°F) [RH = 74%]
Pressure (altimeter): 30.03 inches Hg (1017.0 mb)
Winds: from the SW (230 degrees) at 18 MPH (16 knots; 8.2 m/s)
Visibility: 6 or more miles (10+ km)
Ceiling: at least 12,000 feet AGL
Clouds: few clouds at 1200 feet AGL
Weather: no significant weather observed at this time

METAR text: GCGM 241600Z 23017KT 9999 FEW012 23/20 Q1017 RMK R09/24013KT 210V270 ARP/24014KT 200V280
Conditions at: GCGM (LA GOMERA ARPT , ES) observed 1600 UTC 24 June 2019
Temperature: 23.0°C (73°F)
Dewpoint: 20.0°C (68°F) [RH = 83%]
Pressure (altimeter): 30.03 inches Hg (1017.0 mb)
Winds: from the SW (230 degrees) at 20 MPH (17 knots; 8.7 m/s)
Visibility: 6 or more miles (10+ km)
Ceiling: at least 12,000 feet AGL
Clouds: few clouds at 1200 feet AGL
Weather: no significant weather observed at this time

Forecast for: GCGM (LA GOMERA ARPT , ES)
Text: TAF GCGM 241400Z 2415/2515 25013KT 9999 FEW025 TX26/2514Z TN20/2506Z
Forecast period: 1500 to 2000 UTC 24 June 2019
Forecast type: FROM: standard forecast or significant change
Winds: from the WSW (250 degrees) at 15 MPH (13 knots; 6.7 m/s)
Visibility: 6 or more miles 10+ km)
Ceiling: at least 12,000 feet AGL
Clouds: few clouds at 2500 feet AGL
Weather: no significant weather forecast for this period
Text: BECMG 2420/2422 36003KT
Forecast period: 2000 UTC 24 June 2019 to 0900 UTC 25 June 2019
Forecast type: BECOMING: Conditions expected to become as follows by 2200 UTC 24 June 2019
Winds: from the N (360 degrees) at 3 MPH (3 knots; 1.5 m/s)
Visibility: 6 or more miles 10+ km)
Ceiling: at least 12,000 feet AGL
Clouds: few clouds at 2500 feet AGL
Weather: no significant weather forecast for this period
Text: BECMG 2509/2511 18010KT
Forecast period: 0900 to 1500 UTC 25 June 2019
Forecast type: BECOMING: Conditions expected to become as follows by 1100 UTC 25 June 2019
Winds: from the S (180 degrees) at 12 MPH (10 knots; 5.1 m/s)
Visibility: 6 or more miles 10+ km)
Ceiling: at least 12,000 feet AGL
Clouds: few clouds at 2500 feet AGL
Weather: no significant weather forecast for this period


 MAPA DO AEROPORTO


 INFORMAÇÕES DA PISTA

Pista 09 Tamanho da pista 4921 ft Largura da pista 98 ft
Elevação da pista 716 ft Ranhura da pista 0 ft Proa da pista 81
Pista 27 Tamanho da pista 4921 ft Largura da pista 98 ft
Elevação da pista 712 ft Ranhura da pista 0 ft Proa da pista 261

 FREQUÊNCIAS DO AEROPORTO

Tipo GND Nome GND Frequência 121.7 MHZ
Tipo TWR Nome TWR Frequência 118.4 MHZ

 AUXÍLIOS DE NAVEGAÇÃO PRÓXIMOS AO AEROPORTO

Tipo VOR-DME Nome La Gomera Frequência 116000 KHZ